TAF KAUS
KAUS 081733Z 0818/0924 18004KT P6SM FEW250 FM090800 19004KT P6SM BKN012 FM091200 VRB03KT 6SM BR OVC008 FM091400 20004KT 5SM BR BKN004 OVC008 FM091600 21007KT P6SM BKN010 FM091800 21012G22KT P6SM SCT250=
METAR KAUS
KAUS 082053Z 14006KT 10SM FEW250 FEW300 26/08 A2993 RMK AO2 SLP132 T02560078 56029 ?
KAUS 081953Z 12005KT 10SM FEW300 25/08 A2995 RMK AO2 SLP137 T02500083 ?
KAUS 081853Z VRB03KT 10SM FEW300 24/08 A2998 RMK AO2 SLP148 T02390083 ?
KAUS 081753Z 00000KT 10SM FEW300 23/08 A3002 RMK AO2 SLP161 T02280078 10228 20044 58012 ?
KAUS 081653Z 00000KT 10SM FEW300 20/08 A3005 RMK AO2 SLP172 T02000083 ?
WC KAUS
WS KAUS
WV KAUS